OITK  Khoy Airport

Add Bookmark

Khoy, Iran

Status IATA
Operational KHY
Latitude Longitude
38° 25' 39" N 44° 58' 24" E
38.427502 44.973598
Local (DST + 5) UTC (GMT + 4)
Dec 23, 2014 08:37 Dec 23, 2014 05:07
Sunrise-Sunset Local UTC
Begin Civil Twilight 07:13 03:43
Sunrise 07:43 04:13
Sunset 05:15 13:45
End Civil Twilight 05:45 14:15

Current Weather

METAR Observed MVFR
OITK 221000Z 07004KT 6000 FEW030 SCT170 04/00 Q1013 Mon, Dec 22, 2014 @ 10:00 UTC
(19 Hours, 7 Minutes ago)
Marginal Visual Flight Rules
Wind Visibility Clouds Conditions
070° at 4 knots (7 kph) 6000 meters
  • Few at 3,000' AGL
  • Scattered at 17,000' AGL
  • No significant weather
Temperatures Readings Precipitation
Current Temp 4°C (39°F)
Dewpoint 0°C (32°F)
Humidity 75%
Altimeter 29.91"Hg
Sea Level Pressure 1013mb
Field Elevation 3631.89'
None Recorded

Additional weather within a 92.6km radius of OITK

Map ICAO Location
OITR 84.8km S (174°)

24 Hour Weather History

Loading
-

24 Hour Weather Graphs

Loading
-

CheckWX.com is intended as a tool to help pilots better visualize weather data. It is not intended as a substitute for an official weather briefing obtained from a Flight Service Station. CheckWX.com does not meet the FAA requirements for an official pre-flight weather briefing. Therefore, it's important that pilots still call and obtain an official FSS pre-flight weather briefing.